sensor_id;sensor_type;location;lat;lon;timestamp;pressure;altitude;pressure_sealevel;temperature;humidity
64354;BME280;50681;53.334;-6.536;2023-05-08T00:00:16;66587.59;;;-147.51;100.00
64354;BME280;50681;53.334;-6.536;2023-05-08T00:02:41;66587.59;;;-147.51;100.00
64354;BME280;50681;53.334;-6.536;2023-05-08T00:05:07;66587.59;;;-147.51;100.00
64354;BME280;50681;53.334;-6.536;2023-05-08T00:07:32;66587.59;;;-147.51;100.00
64354;BME280;50681;53.334;-6.536;2023-05-08T00:09:58;66587.59;;;-147.51;100.00
64354;BME280;50681;53.334;-6.536;2023-05-08T00:12:23;66587.59;;;-147.51;100.00
64354;BME280;50681;53.334;-6.536;2023-05-08T00:14:48;66587.59;;;-147.51;100.00
64354;BME280;50681;53.334;-6.536;2023-05-08T00:17:14;66587.59;;;-147.51;100.00
64354;BME280;50681;53.334;-6.536;2023-05-08T00:19:39;66587.59;;;-147.51;100.00
64354;BME280;50681;53.334;-6.536;2023-05-08T00:22:05;66587.59;;;-147.51;100.00
64354;BME280;50681;53.334;-6.536;2023-05-08T00:24:30;66587.59;;;-147.51;100.00
64354;BME280;50681;53.334;-6.536;2023-05-08T00:26:56;66587.59;;;-147.51;100.00
64354;BME280;50681;53.334;-6.536;2023-05-08T00:29:21;66587.59;;;-147.51;100.00
64354;BME280;50681;53.334;-6.536;2023-05-08T00:31:47;66587.59;;;-147.51;100.00
64354;BME280;50681;53.334;-6.536;2023-05-08T00:34:12;66587.59;;;-147.51;100.00
64354;BME280;50681;53.334;-6.536;2023-05-08T00:36:37;66587.59;;;-147.51;100.00
64354;BME280;50681;53.334;-6.536;2023-05-08T00:39:03;66587.59;;;-147.51;100.00
64354;BME280;50681;53.334;-6.536;2023-05-08T00:41:28;66587.59;;;-147.51;100.00
64354;BME280;50681;53.334;-6.536;2023-05-08T00:43:53;66587.59;;;-147.51;100.00
64354;BME280;50681;53.334;-6.536;2023-05-08T00:46:19;66587.59;;;-147.51;100.00
64354;BME280;50681;53.334;-6.536;2023-05-08T00:48:45;66587.59;;;-147.51;100.00
64354;BME280;50681;53.334;-6.536;2023-05-08T00:51:11;66587.59;;;-147.51;100.00
64354;BME280;50681;53.334;-6.536;2023-05-08T00:53:41;66587.59;;;-147.51;100.00
64354;BME280;50681;53.334;-6.536;2023-05-08T00:56:09;66587.59;;;-147.51;100.00
64354;BME280;50681;53.334;-6.536;2023-05-08T00:58:36;66587.59;;;-147.51;100.00
64354;BME280;50681;53.334;-6.536;2023-05-08T01:01:02;66587.59;;;-147.51;100.00
64354;BME280;50681;53.334;-6.536;2023-05-08T01:03:29;66587.59;;;-147.51;100.00
64354;BME280;50681;53.334;-6.536;2023-05-08T01:05:56;66587.59;;;-147.51;100.00
64354;BME280;50681;53.334;-6.536;2023-05-08T01:08:22;66587.59;;;-147.51;100.00
64354;BME280;50681;53.334;-6.536;2023-05-08T01:10:56;66587.59;;;-147.51;100.00
64354;BME280;50681;53.334;-6.536;2023-05-08T01:16:45;66587.59;;;-147.51;100.00
64354;BME280;50681;53.334;-6.536;2023-05-08T01:22:01;66587.59;;;-147.51;100.00
64354;BME280;50681;53.334;-6.536;2023-05-08T01:28:18;66587.59;;;-147.51;100.00
64354;BME280;50681;53.334;-6.536;2023-05-08T01:36:19;66587.59;;;-147.51;100.00
64354;BME280;50681;53.334;-6.536;2023-05-08T01:39:21;66587.59;;;-147.51;100.00
64354;BME280;50681;53.334;-6.536;2023-05-08T01:42:20;66587.59;;;-147.51;100.00
64354;BME280;50681;53.334;-6.536;2023-05-08T01:44:53;66587.59;;;-147.51;100.00
64354;BME280;50681;53.334;-6.536;2023-05-08T01:47:23;66587.59;;;-147.51;100.00
64354;BME280;50681;53.334;-6.536;2023-05-08T01:49:59;66587.59;;;-147.51;100.00
64354;BME280;50681;53.334;-6.536;2023-05-08T01:52:37;66587.59;;;-147.51;100.00
64354;BME280;50681;53.334;-6.536;2023-05-08T01:55:20;66587.59;;;-147.51;100.00
64354;BME280;50681;53.334;-6.536;2023-05-08T01:57:53;66587.59;;;-147.51;100.00
64354;BME280;50681;53.334;-6.536;2023-05-08T02:00:21;66587.59;;;-147.51;100.00
64354;BME280;50681;53.334;-6.536;2023-05-08T02:02:50;66587.59;;;-147.51;100.00
64354;BME280;50681;53.334;-6.536;2023-05-08T02:05:17;66587.59;;;-147.51;100.00
64354;BME280;50681;53.334;-6.536;2023-05-08T02:07:46;66587.59;;;-147.51;100.00
64354;BME280;50681;53.334;-6.536;2023-05-08T02:10:14;66587.59;;;-147.51;100.00
64354;BME280;50681;53.334;-6.536;2023-05-08T02:12:42;66587.59;;;-147.51;100.00
64354;BME280;50681;53.334;-6.536;2023-05-08T02:15:08;66587.59;;;-147.51;100.00
64354;BME280;50681;53.334;-6.536;2023-05-08T02:17:38;66587.59;;;-147.51;100.00
64354;BME280;50681;53.334;-6.536;2023-05-08T02:20:23;66587.59;;;-147.51;100.00
64354;BME280;50681;53.334;-6.536;2023-05-08T02:23:03;66587.59;;;-147.51;100.00
64354;BME280;50681;53.334;-6.536;2023-05-08T02:25:30;66587.59;;;-147.51;100.00
64354;BME280;50681;53.334;-6.536;2023-05-08T02:27:56;66587.59;;;-147.51;100.00
64354;BME280;50681;53.334;-6.536;2023-05-08T02:30:24;66587.59;;;-147.51;100.00
64354;BME280;50681;53.334;-6.536;2023-05-08T02:32:52;66587.59;;;-147.51;100.00
64354;BME280;50681;53.334;-6.536;2023-05-08T02:35:19;66587.59;;;-147.51;100.00
64354;BME280;50681;53.334;-6.536;2023-05-08T02:37:45;66587.59;;;-147.51;100.00
64354;BME280;50681;53.334;-6.536;2023-05-08T02:40:12;66587.59;;;-147.51;100.00
64354;BME280;50681;53.334;-6.536;2023-05-08T02:42:38;66587.59;;;-147.51;100.00
64354;BME280;50681;53.334;-6.536;2023-05-08T02:45:05;66587.59;;;-147.51;100.00
64354;BME280;50681;53.334;-6.536;2023-05-08T02:47:47;66587.59;;;-147.51;100.00
64354;BME280;50681;53.334;-6.536;2023-05-08T02:50:54;66587.59;;;-147.51;100.00
64354;BME280;50681;53.334;-6.536;2023-05-08T02:54:09;66587.59;;;-147.51;100.00
64354;BME280;50681;53.334;-6.536;2023-05-08T03:02:27;66587.59;;;-147.51;100.00
64354;BME280;50681;53.334;-6.536;2023-05-08T03:04:59;66587.59;;;-147.51;100.00
64354;BME280;50681;53.334;-6.536;2023-05-08T03:07:29;66587.59;;;-147.51;100.00
64354;BME280;50681;53.334;-6.536;2023-05-08T03:10:01;66587.59;;;-147.51;100.00
64354;BME280;50681;53.334;-6.536;2023-05-08T03:12:35;66587.59;;;-147.51;100.00
64354;BME280;50681;53.334;-6.536;2023-05-08T03:15:06;66587.59;;;-147.51;100.00
64354;BME280;50681;53.334;-6.536;2023-05-08T03:17:45;66587.59;;;-147.51;100.00
64354;BME280;50681;53.334;-6.536;2023-05-08T03:20:15;66587.59;;;-147.51;100.00
64354;BME280;50681;53.334;-6.536;2023-05-08T03:22:42;66587.59;;;-147.51;100.00
64354;BME280;50681;53.334;-6.536;2023-05-08T03:25:10;66587.59;;;-147.51;100.00
64354;BME280;50681;53.334;-6.536;2023-05-08T03:27:57;66587.59;;;-147.51;100.00
64354;BME280;50681;53.334;-6.536;2023-05-08T03:30:25;66587.59;;;-147.51;100.00
64354;BME280;50681;53.334;-6.536;2023-05-08T03:32:52;66587.59;;;-147.51;100.00
64354;BME280;50681;53.334;-6.536;2023-05-08T03:35:19;66587.59;;;-147.51;100.00
64354;BME280;50681;53.334;-6.536;2023-05-08T03:37:45;66587.59;;;-147.51;100.00
64354;BME280;50681;53.334;-6.536;2023-05-08T03:40:11;66587.59;;;-147.51;100.00
64354;BME280;50681;53.334;-6.536;2023-05-08T03:42:38;66587.59;;;-147.51;100.00
64354;BME280;50681;53.334;-6.536;2023-05-08T03:45:08;66587.59;;;-147.51;100.00
64354;BME280;50681;53.334;-6.536;2023-05-08T03:47:35;66587.59;;;-147.51;100.00
64354;BME280;50681;53.334;-6.536;2023-05-08T03:50:05;66587.59;;;-147.51;100.00
64354;BME280;50681;53.334;-6.536;2023-05-08T03:52:31;66587.59;;;-147.51;100.00
64354;BME280;50681;53.334;-6.536;2023-05-08T03:54:57;66587.59;;;-147.51;100.00
64354;BME280;50681;53.334;-6.536;2023-05-08T03:57:26;66587.59;;;-147.51;100.00
64354;BME280;50681;53.334;-6.536;2023-05-08T04:02:56;66587.59;;;-147.51;100.00
64354;BME280;50681;53.334;-6.536;2023-05-08T04:05:37;66587.59;;;-147.51;100.00
64354;BME280;50681;53.334;-6.536;2023-05-08T04:08:28;66587.59;;;-147.51;100.00
64354;BME280;50681;53.334;-6.536;2023-05-08T04:11:22;66587.59;;;-147.51;100.00
64354;BME280;50681;53.334;-6.536;2023-05-08T04:13:53;66587.59;;;-147.51;100.00
64354;BME280;50681;53.334;-6.536;2023-05-08T04:16:23;66587.59;;;-147.51;100.00
64354;BME280;50681;53.334;-6.536;2023-05-08T04:18:57;66587.59;;;-147.51;100.00
64354;BME280;50681;53.334;-6.536;2023-05-08T04:21:26;66587.59;;;-147.51;100.00
64354;BME280;50681;53.334;-6.536;2023-05-08T04:23:55;66587.59;;;-147.51;100.00
64354;BME280;50681;53.334;-6.536;2023-05-08T04:26:21;66587.59;;;-147.51;100.00
64354;BME280;50681;53.334;-6.536;2023-05-08T04:28:47;66587.59;;;-147.51;100.00
64354;BME280;50681;53.334;-6.536;2023-05-08T04:31:14;66587.59;;;-147.51;100.00
64354;BME280;50681;53.334;-6.536;2023-05-08T04:33:44;66587.59;;;-147.51;100.00
64354;BME280;50681;53.334;-6.536;2023-05-08T04:36:13;66587.59;;;-147.51;100.00
64354;BME280;50681;53.334;-6.536;2023-05-08T04:38:39;66587.59;;;-147.51;100.00
64354;BME280;50681;53.334;-6.536;2023-05-08T04:41:05;66587.59;;;-147.51;100.00
64354;BME280;50681;53.334;-6.536;2023-05-08T04:43:31;66587.59;;;-147.51;100.00
64354;BME280;50681;53.334;-6.536;2023-05-08T04:45:56;66587.59;;;-147.51;100.00
64354;BME280;50681;53.334;-6.536;2023-05-08T04:48:22;66587.59;;;-147.51;100.00
64354;BME280;50681;53.334;-6.536;2023-05-08T04:50:47;66587.59;;;-147.51;100.00
64354;BME280;50681;53.334;-6.536;2023-05-08T04:53:13;66587.59;;;-147.51;100.00
64354;BME280;50681;53.334;-6.536;2023-05-08T04:55:38;66587.59;;;-147.51;100.00
64354;BME280;50681;53.334;-6.536;2023-05-08T04:58:03;66587.59;;;-147.51;100.00
64354;BME280;50681;53.334;-6.536;2023-05-08T05:00:29;66587.59;;;-147.51;100.00
64354;BME280;50681;53.334;-6.536;2023-05-08T05:02:54;66587.59;;;-147.51;100.00
64354;BME280;50681;53.334;-6.536;2023-05-08T05:05:20;66587.59;;;-147.51;100.00
64354;BME280;50681;53.334;-6.536;2023-05-08T05:07:45;66587.59;;;-147.51;100.00
64354;BME280;50681;53.334;-6.536;2023-05-08T05:10:11;66587.59;;;-147.51;100.00
64354;BME280;50681;53.334;-6.536;2023-05-08T05:12:36;66587.59;;;-147.51;100.00
64354;BME280;50681;53.334;-6.536;2023-05-08T05:15:02;66587.59;;;-147.51;100.00
64354;BME280;50681;53.334;-6.536;2023-05-08T05:17:29;66587.59;;;-147.51;100.00
64354;BME280;50681;53.334;-6.536;2023-05-08T05:19:55;66587.59;;;-147.51;100.00
64354;BME280;50681;53.334;-6.536;2023-05-08T05:22:21;66587.59;;;-147.51;100.00
64354;BME280;50681;53.334;-6.536;2023-05-08T05:24:47;66587.59;;;-147.51;100.00
64354;BME280;50681;53.334;-6.536;2023-05-08T05:27:12;66587.59;;;-147.51;100.00
64354;BME280;50681;53.334;-6.536;2023-05-08T05:29:38;66587.59;;;-147.51;100.00
64354;BME280;50681;53.334;-6.536;2023-05-08T05:32:03;66587.59;;;-147.51;100.00
64354;BME280;50681;53.334;-6.536;2023-05-08T05:34:31;66587.59;;;-147.51;100.00
64354;BME280;50681;53.334;-6.536;2023-05-08T05:36:57;66587.59;;;-147.51;100.00
64354;BME280;50681;53.334;-6.536;2023-05-08T05:39:22;66587.59;;;-147.51;100.00
64354;BME280;50681;53.334;-6.536;2023-05-08T05:41:48;66587.59;;;-147.51;100.00
64354;BME280;50681;53.334;-6.536;2023-05-08T05:44:13;66587.59;;;-147.51;100.00
64354;BME280;50681;53.334;-6.536;2023-05-08T05:46:38;66587.59;;;-147.51;100.00
64354;BME280;50681;53.334;-6.536;2023-05-08T05:49:04;66587.59;;;-147.51;100.00
64354;BME280;50681;53.334;-6.536;2023-05-08T05:51:30;66587.59;;;-147.51;100.00
64354;BME280;50681;53.334;-6.536;2023-05-08T05:53:55;66587.59;;;-147.51;100.00
64354;BME280;50681;53.334;-6.536;2023-05-08T05:56:21;66587.59;;;-147.51;100.00
64354;BME280;50681;53.334;-6.536;2023-05-08T05:58:48;66587.59;;;-147.51;100.00
64354;BME280;50681;53.334;-6.536;2023-05-08T06:01:13;66587.59;;;-147.51;100.00
64354;BME280;50681;53.334;-6.536;2023-05-08T06:03:39;66587.59;;;-147.51;100.00
64354;BME280;50681;53.334;-6.536;2023-05-08T06:06:05;66587.59;;;-147.51;100.00
64354;BME280;50681;53.334;-6.536;2023-05-08T06:08:30;66587.59;;;-147.51;100.00
64354;BME280;50681;53.334;-6.536;2023-05-08T06:10:56;66587.59;;;-147.51;100.00
64354;BME280;50681;53.334;-6.536;2023-05-08T06:13:21;66587.59;;;-147.51;100.00
64354;BME280;50681;53.334;-6.536;2023-05-08T06:15:47;66587.59;;;-147.51;100.00
64354;BME280;50681;53.334;-6.536;2023-05-08T06:18:14;66587.59;;;-147.51;100.00
64354;BME280;50681;53.334;-6.536;2023-05-08T06:20:40;66587.59;;;-147.51;100.00
64354;BME280;50681;53.334;-6.536;2023-05-08T06:23:05;66587.59;;;-147.51;100.00
64354;BME280;50681;53.334;-6.536;2023-05-08T06:25:31;66587.59;;;-147.51;100.00
64354;BME280;50681;53.334;-6.536;2023-05-08T06:27:56;66587.59;;;-147.51;100.00
64354;BME280;50681;53.334;-6.536;2023-05-08T06:30:22;66587.59;;;-147.51;100.00
64354;BME280;50681;53.334;-6.536;2023-05-08T06:32:47;66587.59;;;-147.51;100.00
64354;BME280;50681;53.334;-6.536;2023-05-08T06:35:13;66587.59;;;-147.51;100.00
64354;BME280;50681;53.334;-6.536;2023-05-08T06:37:43;66587.59;;;-147.51;100.00
64354;BME280;50681;53.334;-6.536;2023-05-08T06:40:09;66587.59;;;-147.51;100.00
64354;BME280;50681;53.334;-6.536;2023-05-08T06:42:34;66587.59;;;-147.51;100.00
64354;BME280;50681;53.334;-6.536;2023-05-08T06:45:01;66587.59;;;-147.51;100.00
64354;BME280;50681;53.334;-6.536;2023-05-08T06:47:26;66587.59;;;-147.51;100.00
64354;BME280;50681;53.334;-6.536;2023-05-08T06:49:52;66587.59;;;-147.51;100.00
64354;BME280;50681;53.334;-6.536;2023-05-08T06:52:18;66587.59;;;-147.51;100.00
64354;BME280;50681;53.334;-6.536;2023-05-08T06:54:44;66587.59;;;-147.51;100.00
64354;BME280;50681;53.334;-6.536;2023-05-08T06:57:10;66587.59;;;-147.51;100.00
64354;BME280;50681;53.334;-6.536;2023-05-08T06:59:37;66587.59;;;-147.51;100.00
64354;BME280;50681;53.334;-6.536;2023-05-08T07:02:03;66587.59;;;-147.51;100.00
64354;BME280;50681;53.334;-6.536;2023-05-08T07:04:28;66587.59;;;-147.51;100.00
64354;BME280;50681;53.334;-6.536;2023-05-08T07:06:54;66587.59;;;-147.51;100.00
64354;BME280;50681;53.334;-6.536;2023-05-08T07:09:19;66587.59;;;-147.51;100.00
64354;BME280;50681;53.334;-6.536;2023-05-08T07:11:45;66587.59;;;-147.51;100.00
64354;BME280;50681;53.334;-6.536;2023-05-08T07:14:11;66587.59;;;-147.51;100.00
64354;BME280;50681;53.334;-6.536;2023-05-08T07:16:37;66587.59;;;-147.51;100.00
64354;BME280;50681;53.334;-6.536;2023-05-08T07:19:02;66587.59;;;-147.51;100.00
64354;BME280;50681;53.334;-6.536;2023-05-08T07:21:28;66587.59;;;-147.51;100.00
64354;BME280;50681;53.334;-6.536;2023-05-08T07:23:57;66587.59;;;-147.51;100.00
64354;BME280;50681;53.334;-6.536;2023-05-08T07:26:22;66587.59;;;-147.51;100.00
64354;BME280;50681;53.334;-6.536;2023-05-08T07:28:48;66587.59;;;-147.51;100.00
64354;BME280;50681;53.334;-6.536;2023-05-08T07:31:15;66587.59;;;-147.51;100.00
64354;BME280;50681;53.334;-6.536;2023-05-08T07:33:40;66587.59;;;-147.51;100.00
64354;BME280;50681;53.334;-6.536;2023-05-08T07:36:06;66587.59;;;-147.51;100.00
64354;BME280;50681;53.334;-6.536;2023-05-08T07:38:31;66587.59;;;-147.51;100.00
64354;BME280;50681;53.334;-6.536;2023-05-08T07:40:57;66587.59;;;-147.51;100.00
64354;BME280;50681;53.334;-6.536;2023-05-08T07:43:23;66587.59;;;-147.51;100.00
64354;BME280;50681;53.334;-6.536;2023-05-08T07:45:49;66587.59;;;-147.51;100.00
64354;BME280;50681;53.334;-6.536;2023-05-08T07:48:15;66587.59;;;-147.51;100.00
64354;BME280;50681;53.334;-6.536;2023-05-08T07:50:40;66587.59;;;-147.51;100.00
64354;BME280;50681;53.334;-6.536;2023-05-08T07:53:06;66587.59;;;-147.51;100.00
64354;BME280;50681;53.334;-6.536;2023-05-08T07:55:31;66587.59;;;-147.51;100.00
64354;BME280;50681;53.334;-6.536;2023-05-08T07:57:57;66587.59;;;-147.51;100.00
64354;BME280;50681;53.334;-6.536;2023-05-08T08:00:23;66587.59;;;-147.51;100.00
64354;BME280;50681;53.334;-6.536;2023-05-08T08:02:49;66587.59;;;-147.51;100.00
64354;BME280;50681;53.334;-6.536;2023-05-08T08:05:16;66587.59;;;-147.51;100.00
64354;BME280;50681;53.334;-6.536;2023-05-08T08:07:41;66587.59;;;-147.51;100.00
64354;BME280;50681;53.334;-6.536;2023-05-08T08:10:07;66587.59;;;-147.51;100.00
64354;BME280;50681;53.334;-6.536;2023-05-08T08:12:32;66587.59;;;-147.51;100.00
64354;BME280;50681;53.334;-6.536;2023-05-08T08:14:58;66587.59;;;-147.51;100.00
64354;BME280;50681;53.334;-6.536;2023-05-08T08:17:23;66587.59;;;-147.51;100.00
64354;BME280;50681;53.334;-6.536;2023-05-08T08:19:49;66587.59;;;-147.51;100.00
64354;BME280;50681;53.334;-6.536;2023-05-08T08:22:14;66587.59;;;-147.51;100.00
64354;BME280;50681;53.334;-6.536;2023-05-08T08:24:40;66587.59;;;-147.51;100.00
64354;BME280;50681;53.334;-6.536;2023-05-08T08:27:06;66587.59;;;-147.51;100.00
64354;BME280;50681;53.334;-6.536;2023-05-08T08:29:32;66587.59;;;-147.51;100.00
64354;BME280;50681;53.334;-6.536;2023-05-08T08:31:58;66587.59;;;-147.51;100.00
64354;BME280;50681;53.334;-6.536;2023-05-08T08:34:24;66587.59;;;-147.51;100.00
64354;BME280;50681;53.334;-6.536;2023-05-08T08:36:50;66587.59;;;-147.51;100.00
64354;BME280;50681;53.334;-6.536;2023-05-08T08:39:15;66587.59;;;-147.51;100.00
64354;BME280;50681;53.334;-6.536;2023-05-08T08:41:41;66587.59;;;-147.51;100.00
64354;BME280;50681;53.334;-6.536;2023-05-08T08:44:06;66587.59;;;-147.51;100.00
64354;BME280;50681;53.334;-6.536;2023-05-08T08:46:32;66587.59;;;-147.51;100.00
64354;BME280;50681;53.334;-6.536;2023-05-08T08:48:58;66587.59;;;-147.51;100.00
64354;BME280;50681;53.334;-6.536;2023-05-08T08:51:42;66587.59;;;-147.51;100.00
64354;BME280;50681;53.334;-6.536;2023-05-08T08:54:19;66587.59;;;-147.51;100.00
64354;BME280;50681;53.334;-6.536;2023-05-08T08:56:47;66587.59;;;-147.51;100.00
64354;BME280;50681;53.334;-6.536;2023-05-08T08:59:15;66587.59;;;-147.51;100.00
64354;BME280;50681;53.334;-6.536;2023-05-08T09:01:44;66587.59;;;-147.51;100.00
64354;BME280;50681;53.334;-6.536;2023-05-08T09:04:11;66587.59;;;-147.51;100.00
64354;BME280;50681;53.334;-6.536;2023-05-08T09:06:37;66587.59;;;-147.51;100.00
64354;BME280;50681;53.334;-6.536;2023-05-08T09:09:05;66587.59;;;-147.51;100.00
64354;BME280;50681;53.334;-6.536;2023-05-08T09:11:31;66587.59;;;-147.51;100.00
64354;BME280;50681;53.334;-6.536;2023-05-08T09:13:57;66587.59;;;-147.51;100.00
64354;BME280;50681;53.334;-6.536;2023-05-08T09:16:22;66587.59;;;-147.51;100.00
64354;BME280;50681;53.334;-6.536;2023-05-08T09:18:48;66587.59;;;-147.51;100.00
64354;BME280;50681;53.334;-6.536;2023-05-08T09:21:14;66587.59;;;-147.51;100.00
64354;BME280;50681;53.334;-6.536;2023-05-08T09:23:56;66587.59;;;-147.51;100.00
64354;BME280;50681;53.334;-6.536;2023-05-08T09:26:28;66587.59;;;-147.51;100.00
64354;BME280;50681;53.334;-6.536;2023-05-08T09:29:25;66587.59;;;-147.51;100.00
64354;BME280;50681;53.334;-6.536;2023-05-08T09:31:51;66587.59;;;-147.51;100.00
64354;BME280;50681;53.334;-6.536;2023-05-08T09:34:30;66587.59;;;-147.51;100.00
64354;BME280;50681;53.334;-6.536;2023-05-08T09:39:34;66587.59;;;-147.51;100.00
64354;BME280;50681;53.334;-6.536;2023-05-08T09:42:01;66587.59;;;-147.51;100.00
64354;BME280;50681;53.334;-6.536;2023-05-08T09:44:27;66587.59;;;-147.51;100.00
64354;BME280;50681;53.334;-6.536;2023-05-08T09:47:09;66587.59;;;-147.51;100.00
64354;BME280;50681;53.334;-6.536;2023-05-08T09:49:35;66587.59;;;-147.51;100.00
64354;BME280;50681;53.334;-6.536;2023-05-08T09:52:01;66587.59;;;-147.51;100.00
64354;BME280;50681;53.334;-6.536;2023-05-08T09:54:27;66587.59;;;-147.51;100.00
64354;BME280;50681;53.334;-6.536;2023-05-08T09:56:54;66587.59;;;-147.51;100.00
64354;BME280;50681;53.334;-6.536;2023-05-08T09:59:28;66587.59;;;-147.51;100.00
64354;BME280;50681;53.334;-6.536;2023-05-08T10:01:54;66587.59;;;-147.51;100.00
64354;BME280;50681;53.334;-6.536;2023-05-08T10:04:36;66587.59;;;-147.51;100.00
64354;BME280;50681;53.334;-6.536;2023-05-08T10:07:02;66587.59;;;-147.51;100.00
64354;BME280;50681;53.334;-6.536;2023-05-08T10:09:28;66587.59;;;-147.51;100.00
64354;BME280;50681;53.334;-6.536;2023-05-08T10:11:54;66587.59;;;-147.51;100.00
64354;BME280;50681;53.334;-6.536;2023-05-08T10:14:22;66587.59;;;-147.51;100.00
64354;BME280;50681;53.334;-6.536;2023-05-08T10:16:52;66587.59;;;-147.51;100.00
64354;BME280;50681;53.334;-6.536;2023-05-08T10:19:22;66587.59;;;-147.51;100.00
64354;BME280;50681;53.334;-6.536;2023-05-08T10:21:50;66587.59;;;-147.51;100.00
64354;BME280;50681;53.334;-6.536;2023-05-08T10:24:25;66587.59;;;-147.51;100.00
64354;BME280;50681;53.334;-6.536;2023-05-08T10:29:40;66587.59;;;-147.51;100.00
64354;BME280;50681;53.334;-6.536;2023-05-08T10:32:08;66587.59;;;-147.51;100.00
64354;BME280;50681;53.334;-6.536;2023-05-08T10:34:39;66587.59;;;-147.51;100.00
64354;BME280;50681;53.334;-6.536;2023-05-08T10:37:08;66587.59;;;-147.51;100.00
64354;BME280;50681;53.334;-6.536;2023-05-08T10:39:33;66587.59;;;-147.51;100.00
64354;BME280;50681;53.334;-6.536;2023-05-08T10:42:00;66587.59;;;-147.51;100.00
64354;BME280;50681;53.334;-6.536;2023-05-08T10:44:26;66587.59;;;-147.51;100.00
64354;BME280;50681;53.334;-6.536;2023-05-08T10:52:33;66587.59;;;-147.51;100.00
64354;BME280;50681;53.334;-6.536;2023-05-08T10:55:22;66587.59;;;-147.51;100.00
64354;BME280;50681;53.334;-6.536;2023-05-08T10:58:09;66587.59;;;-147.51;100.00
64354;BME280;50681;53.334;-6.536;2023-05-08T11:03:17;66587.59;;;-147.51;100.00
64354;BME280;50681;53.334;-6.536;2023-05-08T11:05:56;66587.59;;;-147.51;100.00
64354;BME280;50681;53.334;-6.536;2023-05-08T11:08:28;66587.59;;;-147.51;100.00
64354;BME280;50681;53.334;-6.536;2023-05-08T11:13:37;66587.59;;;-147.51;100.00
64354;BME280;50681;53.334;-6.536;2023-05-08T11:16:07;66587.59;;;-147.51;100.00
64354;BME280;50681;53.334;-6.536;2023-05-08T11:18:36;66587.59;;;-147.51;100.00
64354;BME280;50681;53.334;-6.536;2023-05-08T11:21:04;66587.59;;;-147.51;100.00
64354;BME280;50681;53.334;-6.536;2023-05-08T11:23:36;66587.59;;;-147.51;100.00
64354;BME280;50681;53.334;-6.536;2023-05-08T11:26:04;66587.59;;;-147.51;100.00
64354;BME280;50681;53.334;-6.536;2023-05-08T11:31:18;66587.59;;;-147.51;100.00
64354;BME280;50681;53.334;-6.536;2023-05-08T11:33:44;66587.59;;;-147.51;100.00
64354;BME280;50681;53.334;-6.536;2023-05-08T11:36:14;66587.59;;;-147.51;100.00
64354;BME280;50681;53.334;-6.536;2023-05-08T11:38:42;66587.59;;;-147.51;100.00
64354;BME280;50681;53.334;-6.536;2023-05-08T11:41:11;66587.59;;;-147.51;100.00
64354;BME280;50681;53.334;-6.536;2023-05-08T11:44:12;66587.59;;;-147.51;100.00
64354;BME280;50681;53.334;-6.536;2023-05-08T11:49:14;66587.59;;;-147.51;100.00
64354;BME280;50681;53.334;-6.536;2023-05-08T11:51:44;66587.59;;;-147.51;100.00
64354;BME280;50681;53.334;-6.536;2023-05-08T11:54:18;66587.59;;;-147.51;100.00
64354;BME280;50681;53.334;-6.536;2023-05-08T11:56:50;66587.59;;;-147.51;100.00
64354;BME280;50681;53.334;-6.536;2023-05-08T11:59:26;66587.59;;;-147.51;100.00
64354;BME280;50681;53.334;-6.536;2023-05-08T12:01:52;66587.59;;;-147.51;100.00
64354;BME280;50681;53.334;-6.536;2023-05-08T12:04:18;66587.59;;;-147.51;100.00
64354;BME280;50681;53.334;-6.536;2023-05-08T12:06:43;66587.59;;;-147.51;100.00
64354;BME280;50681;53.334;-6.536;2023-05-08T12:11:24;100556.00;;;25.17;100.00
64354;BME280;50681;53.334;-6.536;2023-05-08T12:13:53;100553.66;;;25.30;100.00
64354;BME280;50681;53.334;-6.536;2023-05-08T12:16:19;100548.97;;;25.37;100.00
64354;BME280;50681;53.334;-6.536;2023-05-08T12:18:54;100558.50;;;25.69;100.00
64354;BME280;50681;53.334;-6.536;2023-05-08T12:21:20;100554.88;;;25.43;100.00
64354;BME280;50681;53.334;-6.536;2023-05-08T12:23:46;100549.22;;;24.96;100.00
64354;BME280;50681;53.334;-6.536;2023-05-08T12:26:14;100549.97;;;24.86;100.00
64354;BME280;50681;53.334;-6.536;2023-05-08T12:28:43;100550.94;;;25.33;100.00
64354;BME280;50681;53.334;-6.536;2023-05-08T12:31:09;100555.22;;;25.13;100.00
64354;BME280;50681;53.334;-6.536;2023-05-08T12:33:34;100567.09;;;25.35;100.00
64354;BME280;50681;53.334;-6.536;2023-05-08T12:36:00;100567.63;;;24.70;100.00
64354;BME280;50681;53.334;-6.536;2023-05-08T12:38:26;100565.31;;;24.79;100.00
64354;BME280;50681;53.334;-6.536;2023-05-08T12:40:52;100552.50;;;25.34;100.00
64354;BME280;50681;53.334;-6.536;2023-05-08T12:43:19;100545.00;;;25.31;100.00
64354;BME280;50681;53.334;-6.536;2023-05-08T12:45:45;100552.78;;;24.97;100.00
64354;BME280;50681;53.334;-6.536;2023-05-08T12:48:14;100554.03;;;25.14;100.00
64354;BME280;50681;53.334;-6.536;2023-05-08T12:50:46;100555.28;;;25.38;100.00
64354;BME280;50681;53.334;-6.536;2023-05-08T12:53:16;100564.06;;;25.76;100.00
64354;BME280;50681;53.334;-6.536;2023-05-08T12:55:50;100558.53;;;26.05;100.00
64354;BME280;50681;53.334;-6.536;2023-05-08T12:58:19;100561.31;;;26.09;100.00
64354;BME280;50681;53.334;-6.536;2023-05-08T13:00:49;100561.72;;;26.18;100.00
64354;BME280;50681;53.334;-6.536;2023-05-08T13:03:28;100564.84;;;26.42;100.00
64354;BME280;50681;53.334;-6.536;2023-05-08T13:05:57;100565.25;;;26.40;100.00
64354;BME280;50681;53.334;-6.536;2023-05-08T13:08:36;100571.19;;;26.32;100.00
64354;BME280;50681;53.334;-6.536;2023-05-08T13:11:04;100575.13;;;26.45;100.00
64354;BME280;50681;53.334;-6.536;2023-05-08T13:13:32;100570.41;;;26.35;100.00
64354;BME280;50681;53.334;-6.536;2023-05-08T13:16:02;100568.41;;;26.46;100.00